sensor_id;sensor_type;location;lat;lon;timestamp;temperature;humidity
52273;DHT22;38227;50.942;4.016;2023-04-24T00:01:51;11.10;99.90
52273;DHT22;38227;50.942;4.016;2023-04-24T00:04:23;11.10;99.90
52273;DHT22;38227;50.942;4.016;2023-04-24T00:06:51;11.10;99.90
52273;DHT22;38227;50.942;4.016;2023-04-24T00:09:26;11.20;99.90
52273;DHT22;38227;50.942;4.016;2023-04-24T00:11:55;11.20;99.90
52273;DHT22;38227;50.942;4.016;2023-04-24T00:14:33;11.10;99.90
52273;DHT22;38227;50.942;4.016;2023-04-24T00:17:12;11.00;99.90
52273;DHT22;38227;50.942;4.016;2023-04-24T00:19:43;11.10;99.90
52273;DHT22;38227;50.942;4.016;2023-04-24T00:22:11;11.00;99.90
52273;DHT22;38227;50.942;4.016;2023-04-24T00:24:40;11.10;99.90
52273;DHT22;38227;50.942;4.016;2023-04-24T00:27:08;11.10;99.90
52273;DHT22;38227;50.942;4.016;2023-04-24T00:29:46;11.20;99.90
52273;DHT22;38227;50.942;4.016;2023-04-24T00:32:14;11.30;99.90
52273;DHT22;38227;50.942;4.016;2023-04-24T00:34:53;11.30;99.90
52273;DHT22;38227;50.942;4.016;2023-04-24T00:37:21;11.30;99.90
52273;DHT22;38227;50.942;4.016;2023-04-24T00:39:53;11.30;99.90
52273;DHT22;38227;50.942;4.016;2023-04-24T00:42:21;11.10;99.90
52273;DHT22;38227;50.942;4.016;2023-04-24T00:44:49;11.00;99.90
52273;DHT22;38227;50.942;4.016;2023-04-24T00:47:19;11.00;99.90
52273;DHT22;38227;50.942;4.016;2023-04-24T00:49:47;11.00;99.90
52273;DHT22;38227;50.942;4.016;2023-04-24T00:52:20;11.10;99.90
52273;DHT22;38227;50.942;4.016;2023-04-24T00:54:49;11.10;99.90
52273;DHT22;38227;50.942;4.016;2023-04-24T00:57:21;11.10;99.90
52273;DHT22;38227;50.942;4.016;2023-04-24T00:59:50;11.20;99.90
52273;DHT22;38227;50.942;4.016;2023-04-24T01:02:19;11.10;99.90
52273;DHT22;38227;50.942;4.016;2023-04-24T01:04:52;11.10;99.90
52273;DHT22;38227;50.942;4.016;2023-04-24T01:07:21;10.90;99.90
52273;DHT22;38227;50.942;4.016;2023-04-24T01:09:50;10.70;99.90
52273;DHT22;38227;50.942;4.016;2023-04-24T01:12:20;10.70;99.90
52273;DHT22;38227;50.942;4.016;2023-04-24T01:14:54;10.90;99.90
52273;DHT22;38227;50.942;4.016;2023-04-24T01:17:26;10.80;99.90
52273;DHT22;38227;50.942;4.016;2023-04-24T01:19:54;10.90;99.90
52273;DHT22;38227;50.942;4.016;2023-04-24T01:22:26;10.80;99.90
52273;DHT22;38227;50.942;4.016;2023-04-24T01:24:55;10.70;99.90
52273;DHT22;38227;50.942;4.016;2023-04-24T01:27:27;10.60;99.90
52273;DHT22;38227;50.942;4.016;2023-04-24T01:29:57;10.60;99.90
52273;DHT22;38227;50.942;4.016;2023-04-24T01:32:38;10.60;99.90
52273;DHT22;38227;50.942;4.016;2023-04-24T01:35:08;10.60;99.90
52273;DHT22;38227;50.942;4.016;2023-04-24T01:37:41;10.60;99.90
52273;DHT22;38227;50.942;4.016;2023-04-24T01:40:09;10.50;99.90
52273;DHT22;38227;50.942;4.016;2023-04-24T01:42:37;10.40;99.90
52273;DHT22;38227;50.942;4.016;2023-04-24T01:45:09;10.30;99.90
52273;DHT22;38227;50.942;4.016;2023-04-24T01:47:37;10.20;99.90
52273;DHT22;38227;50.942;4.016;2023-04-24T01:50:09;10.30;99.90
52273;DHT22;38227;50.942;4.016;2023-04-24T01:52:37;10.30;99.90
52273;DHT22;38227;50.942;4.016;2023-04-24T01:55:08;10.30;99.90
52273;DHT22;38227;50.942;4.016;2023-04-24T01:57:38;10.30;99.90
52273;DHT22;38227;50.942;4.016;2023-04-24T02:00:08;10.20;99.90
52273;DHT22;38227;50.942;4.016;2023-04-24T02:02:40;10.10;99.90
52273;DHT22;38227;50.942;4.016;2023-04-24T02:05:09;10.10;99.90
52273;DHT22;38227;50.942;4.016;2023-04-24T02:07:38;10.00;99.90
52273;DHT22;38227;50.942;4.016;2023-04-24T02:10:07;10.10;99.90
52273;DHT22;38227;50.942;4.016;2023-04-24T02:12:36;10.10;99.90
52273;DHT22;38227;50.942;4.016;2023-04-24T02:15:05;10.00;99.90
52273;DHT22;38227;50.942;4.016;2023-04-24T02:17:34;10.10;99.90
52273;DHT22;38227;50.942;4.016;2023-04-24T02:20:07;10.10;99.90
52273;DHT22;38227;50.942;4.016;2023-04-24T02:22:35;10.10;99.90
52273;DHT22;38227;50.942;4.016;2023-04-24T02:25:04;10.20;99.90
52273;DHT22;38227;50.942;4.016;2023-04-24T02:27:34;10.10;99.90
52273;DHT22;38227;50.942;4.016;2023-04-24T02:30:07;10.10;99.90
52273;DHT22;38227;50.942;4.016;2023-04-24T02:32:36;10.10;99.90
52273;DHT22;38227;50.942;4.016;2023-04-24T02:35:05;10.10;99.90
52273;DHT22;38227;50.942;4.016;2023-04-24T02:37:35;10.10;99.90
52273;DHT22;38227;50.942;4.016;2023-04-24T02:40:07;10.00;99.90
52273;DHT22;38227;50.942;4.016;2023-04-24T02:42:41;10.00;99.90
52273;DHT22;38227;50.942;4.016;2023-04-24T02:45:10;10.00;99.90
52273;DHT22;38227;50.942;4.016;2023-04-24T02:47:38;10.00;99.90
52273;DHT22;38227;50.942;4.016;2023-04-24T02:50:10;10.00;99.90
52273;DHT22;38227;50.942;4.016;2023-04-24T02:52:41;10.00;99.90
52273;DHT22;38227;50.942;4.016;2023-04-24T02:55:13;9.90;99.90
52273;DHT22;38227;50.942;4.016;2023-04-24T02:57:41;9.90;99.90
52273;DHT22;38227;50.942;4.016;2023-04-24T03:00:10;9.90;99.90
52273;DHT22;38227;50.942;4.016;2023-04-24T03:02:40;9.90;99.90
52273;DHT22;38227;50.942;4.016;2023-04-24T03:05:12;9.90;99.90
52273;DHT22;38227;50.942;4.016;2023-04-24T03:07:41;10.00;99.90
52273;DHT22;38227;50.942;4.016;2023-04-24T03:10:09;9.90;99.90
52273;DHT22;38227;50.942;4.016;2023-04-24T03:12:41;9.90;99.90
52273;DHT22;38227;50.942;4.016;2023-04-24T03:15:11;9.90;99.90
52273;DHT22;38227;50.942;4.016;2023-04-24T03:17:42;9.90;99.90
52273;DHT22;38227;50.942;4.016;2023-04-24T03:20:14;9.90;99.90
52273;DHT22;38227;50.942;4.016;2023-04-24T03:22:47;9.90;99.90
52273;DHT22;38227;50.942;4.016;2023-04-24T03:25:15;10.00;99.90
52273;DHT22;38227;50.942;4.016;2023-04-24T03:27:47;9.90;99.90
52273;DHT22;38227;50.942;4.016;2023-04-24T03:30:15;10.00;99.90
52273;DHT22;38227;50.942;4.016;2023-04-24T03:32:53;9.80;99.90
52273;DHT22;38227;50.942;4.016;2023-04-24T03:35:21;9.70;99.90
52273;DHT22;38227;50.942;4.016;2023-04-24T03:37:53;9.80;99.90
52273;DHT22;38227;50.942;4.016;2023-04-24T03:40:22;9.80;99.90
52273;DHT22;38227;50.942;4.016;2023-04-24T03:42:53;9.90;99.90
52273;DHT22;38227;50.942;4.016;2023-04-24T03:45:22;10.00;99.90
52273;DHT22;38227;50.942;4.016;2023-04-24T03:47:50;10.00;99.90
52273;DHT22;38227;50.942;4.016;2023-04-24T03:50:29;10.00;99.90
52273;DHT22;38227;50.942;4.016;2023-04-24T03:53:01;9.90;99.90
52273;DHT22;38227;50.942;4.016;2023-04-24T03:55:29;9.90;99.90
52273;DHT22;38227;50.942;4.016;2023-04-24T03:58:02;9.90;99.90
52273;DHT22;38227;50.942;4.016;2023-04-24T04:00:33;9.90;99.90
52273;DHT22;38227;50.942;4.016;2023-04-24T04:03:13;9.90;99.90
52273;DHT22;38227;50.942;4.016;2023-04-24T04:05:42;10.10;99.90
52273;DHT22;38227;50.942;4.016;2023-04-24T04:08:20;9.90;99.90
52273;DHT22;38227;50.942;4.016;2023-04-24T04:10:48;9.90;99.90
52273;DHT22;38227;50.942;4.016;2023-04-24T04:13:17;9.80;99.90
52273;DHT22;38227;50.942;4.016;2023-04-24T04:15:49;9.80;99.90
52273;DHT22;38227;50.942;4.016;2023-04-24T04:18:16;9.90;99.90
52273;DHT22;38227;50.942;4.016;2023-04-24T04:20:55;9.70;99.90
52273;DHT22;38227;50.942;4.016;2023-04-24T04:23:23;9.70;99.90
52273;DHT22;38227;50.942;4.016;2023-04-24T04:25:51;9.70;99.90
52273;DHT22;38227;50.942;4.016;2023-04-24T04:28:20;9.70;99.90
52273;DHT22;38227;50.942;4.016;2023-04-24T04:30:48;9.70;99.90
52273;DHT22;38227;50.942;4.016;2023-04-24T04:33:20;9.60;99.90
52273;DHT22;38227;50.942;4.016;2023-04-24T04:35:50;9.60;99.90
52273;DHT22;38227;50.942;4.016;2023-04-24T04:38:22;9.70;99.90
52273;DHT22;38227;50.942;4.016;2023-04-24T04:40:54;9.70;99.90
52273;DHT22;38227;50.942;4.016;2023-04-24T04:43:35;9.70;99.90
52273;DHT22;38227;50.942;4.016;2023-04-24T04:46:04;9.80;99.90
52273;DHT22;38227;50.942;4.016;2023-04-24T04:48:35;9.70;99.90
52273;DHT22;38227;50.942;4.016;2023-04-24T04:51:04;9.70;99.90
52273;DHT22;38227;50.942;4.016;2023-04-24T04:53:36;9.70;99.90
52273;DHT22;38227;50.942;4.016;2023-04-24T04:56:05;9.60;99.90
52273;DHT22;38227;50.942;4.016;2023-04-24T04:58:33;9.60;99.90
52273;DHT22;38227;50.942;4.016;2023-04-24T05:01:02;9.70;99.90
52273;DHT22;38227;50.942;4.016;2023-04-24T05:03:34;9.80;99.90
52273;DHT22;38227;50.942;4.016;2023-04-24T05:06:04;9.90;99.90
52273;DHT22;38227;50.942;4.016;2023-04-24T05:08:33;9.70;99.90
52273;DHT22;38227;50.942;4.016;2023-04-24T05:11:02;9.60;99.90
52273;DHT22;38227;50.942;4.016;2023-04-24T05:13:31;9.70;99.90
52273;DHT22;38227;50.942;4.016;2023-04-24T05:16:00;9.80;99.90
52273;DHT22;38227;50.942;4.016;2023-04-24T05:18:33;9.70;99.90
52273;DHT22;38227;50.942;4.016;2023-04-24T05:21:02;9.60;99.90
52273;DHT22;38227;50.942;4.016;2023-04-24T05:23:41;9.70;99.90
52273;DHT22;38227;50.942;4.016;2023-04-24T05:26:09;9.70;99.90
52273;DHT22;38227;50.942;4.016;2023-04-24T05:28:37;9.70;99.90
52273;DHT22;38227;50.942;4.016;2023-04-24T05:31:06;9.70;99.90
52273;DHT22;38227;50.942;4.016;2023-04-24T05:33:34;9.70;99.90
52273;DHT22;38227;50.942;4.016;2023-04-24T05:36:02;9.70;99.90
52273;DHT22;38227;50.942;4.016;2023-04-24T05:38:35;9.60;99.90
52273;DHT22;38227;50.942;4.016;2023-04-24T05:41:03;9.50;99.90
52273;DHT22;38227;50.942;4.016;2023-04-24T05:43:42;9.60;99.90
52273;DHT22;38227;50.942;4.016;2023-04-24T05:46:11;9.50;99.90
52273;DHT22;38227;50.942;4.016;2023-04-24T05:48:41;9.50;99.90
52273;DHT22;38227;50.942;4.016;2023-04-24T05:51:10;9.60;99.90
52273;DHT22;38227;50.942;4.016;2023-04-24T05:53:40;9.50;99.90
52273;DHT22;38227;50.942;4.016;2023-04-24T05:56:08;9.60;99.90
52273;DHT22;38227;50.942;4.016;2023-04-24T05:58:38;9.70;99.90
52273;DHT22;38227;50.942;4.016;2023-04-24T06:01:10;9.60;99.90
52273;DHT22;38227;50.942;4.016;2023-04-24T06:03:43;9.70;99.90
52273;DHT22;38227;50.942;4.016;2023-04-24T06:06:13;9.70;99.90
52273;DHT22;38227;50.942;4.016;2023-04-24T06:08:42;9.70;99.90
52273;DHT22;38227;50.942;4.016;2023-04-24T06:11:11;9.70;99.90
52273;DHT22;38227;50.942;4.016;2023-04-24T06:13:49;9.80;99.90
52273;DHT22;38227;50.942;4.016;2023-04-24T06:16:17;9.70;99.90
52273;DHT22;38227;50.942;4.016;2023-04-24T06:18:45;9.80;99.90
52273;DHT22;38227;50.942;4.016;2023-04-24T06:21:16;9.70;99.90
52273;DHT22;38227;50.942;4.016;2023-04-24T06:23:44;9.70;99.90
52273;DHT22;38227;50.942;4.016;2023-04-24T06:26:17;9.70;99.90
52273;DHT22;38227;50.942;4.016;2023-04-24T06:28:47;9.70;99.90
52273;DHT22;38227;50.942;4.016;2023-04-24T06:31:18;9.70;99.90
52273;DHT22;38227;50.942;4.016;2023-04-24T06:33:51;9.80;99.90
52273;DHT22;38227;50.942;4.016;2023-04-24T06:36:20;9.90;99.90
52273;DHT22;38227;50.942;4.016;2023-04-24T06:38:48;9.90;99.90
52273;DHT22;38227;50.942;4.016;2023-04-24T06:41:20;9.90;99.90
52273;DHT22;38227;50.942;4.016;2023-04-24T06:43:49;9.90;99.90
52273;DHT22;38227;50.942;4.016;2023-04-24T06:46:17;9.80;99.90
52273;DHT22;38227;50.942;4.016;2023-04-24T06:48:49;9.80;99.90
52273;DHT22;38227;50.942;4.016;2023-04-24T06:51:17;9.90;99.90
52273;DHT22;38227;50.942;4.016;2023-04-24T06:53:51;10.00;99.90
52273;DHT22;38227;50.942;4.016;2023-04-24T06:56:20;10.20;99.90
52273;DHT22;38227;50.942;4.016;2023-04-24T06:58:57;10.20;99.90
52273;DHT22;38227;50.942;4.016;2023-04-24T07:01:25;10.30;99.90
52273;DHT22;38227;50.942;4.016;2023-04-24T07:03:57;10.40;99.90
52273;DHT22;38227;50.942;4.016;2023-04-24T07:06:30;10.40;99.90
52273;DHT22;38227;50.942;4.016;2023-04-24T07:09:03;10.40;99.90
52273;DHT22;38227;50.942;4.016;2023-04-24T07:11:44;10.40;99.90
52273;DHT22;38227;50.942;4.016;2023-04-24T07:14:20;10.50;99.90
52273;DHT22;38227;50.942;4.016;2023-04-24T07:16:51;10.40;99.90
52273;DHT22;38227;50.942;4.016;2023-04-24T07:19:22;10.20;99.90
52273;DHT22;38227;50.942;4.016;2023-04-24T07:21:59;10.30;99.90
52273;DHT22;38227;50.942;4.016;2023-04-24T07:24:30;10.50;99.90
52273;DHT22;38227;50.942;4.016;2023-04-24T07:27:00;10.50;99.90
52273;DHT22;38227;50.942;4.016;2023-04-24T07:29:38;10.70;99.90
52273;DHT22;38227;50.942;4.016;2023-04-24T07:32:07;10.80;99.90
52273;DHT22;38227;50.942;4.016;2023-04-24T07:34:35;11.10;99.90
52273;DHT22;38227;50.942;4.016;2023-04-24T07:37:03;11.70;99.90
52273;DHT22;38227;50.942;4.016;2023-04-24T07:39:36;11.90;99.90
52273;DHT22;38227;50.942;4.016;2023-04-24T07:42:04;12.00;99.90
52273;DHT22;38227;50.942;4.016;2023-04-24T07:44:43;11.70;99.90
52273;DHT22;38227;50.942;4.016;2023-04-24T07:47:13;11.40;99.90
52273;DHT22;38227;50.942;4.016;2023-04-24T07:49:44;11.30;99.90
52273;DHT22;38227;50.942;4.016;2023-04-24T07:52:16;11.20;99.90
52273;DHT22;38227;50.942;4.016;2023-04-24T07:54:50;11.50;99.90
52273;DHT22;38227;50.942;4.016;2023-04-24T07:57:26;12.40;99.90
52273;DHT22;38227;50.942;4.016;2023-04-24T07:59:58;12.80;99.90
52273;DHT22;38227;50.942;4.016;2023-04-24T08:02:36;12.70;99.90
52273;DHT22;38227;50.942;4.016;2023-04-24T08:05:05;12.50;99.90
52273;DHT22;38227;50.942;4.016;2023-04-24T08:07:35;12.20;99.90
52273;DHT22;38227;50.942;4.016;2023-04-24T08:10:04;12.00;99.90
52273;DHT22;38227;50.942;4.016;2023-04-24T08:12:36;11.80;99.90
52273;DHT22;38227;50.942;4.016;2023-04-24T08:15:04;11.70;99.90
52273;DHT22;38227;50.942;4.016;2023-04-24T08:17:33;11.70;99.90
52273;DHT22;38227;50.942;4.016;2023-04-24T08:20:02;12.40;99.90
52273;DHT22;38227;50.942;4.016;2023-04-24T08:22:31;14.00;99.90
52273;DHT22;38227;50.942;4.016;2023-04-24T08:25:00;15.60;99.90
52273;DHT22;38227;50.942;4.016;2023-04-24T08:27:39;16.80;99.90
52273;DHT22;38227;50.942;4.016;2023-04-24T08:30:07;18.00;99.90
52273;DHT22;38227;50.942;4.016;2023-04-24T08:32:38;18.90;99.90
52273;DHT22;38227;50.942;4.016;2023-04-24T08:35:24;20.20;99.30
52273;DHT22;38227;50.942;4.016;2023-04-24T08:37:52;20.50;97.10
52273;DHT22;38227;50.942;4.016;2023-04-24T08:40:27;20.10;97.40
52273;DHT22;38227;50.942;4.016;2023-04-24T08:42:59;19.30;96.40
52273;DHT22;38227;50.942;4.016;2023-04-24T08:45:27;17.80;97.90
52273;DHT22;38227;50.942;4.016;2023-04-24T08:47:55;17.10;98.90
52273;DHT22;38227;50.942;4.016;2023-04-24T08:50:29;17.30;98.60
52273;DHT22;38227;50.942;4.016;2023-04-24T08:52:57;18.20;97.70
52273;DHT22;38227;50.942;4.016;2023-04-24T08:55:31;18.80;96.00
52273;DHT22;38227;50.942;4.016;2023-04-24T08:58:03;19.40;95.10
52273;DHT22;38227;50.942;4.016;2023-04-24T09:00:31;18.90;94.80
52273;DHT22;38227;50.942;4.016;2023-04-24T09:03:02;17.70;96.30
52273;DHT22;38227;50.942;4.016;2023-04-24T09:05:34;17.00;97.50
52273;DHT22;38227;50.942;4.016;2023-04-24T09:08:14;16.10;99.30
52273;DHT22;38227;50.942;4.016;2023-04-24T09:10:45;15.40;99.90
52273;DHT22;38227;50.942;4.016;2023-04-24T09:13:13;16.10;99.60
52273;DHT22;38227;50.942;4.016;2023-04-24T09:15:44;16.90;98.00
52273;DHT22;38227;50.942;4.016;2023-04-24T09:18:19;17.10;97.60
52273;DHT22;38227;50.942;4.016;2023-04-24T09:21:09;16.40;98.50
52273;DHT22;38227;50.942;4.016;2023-04-24T09:23:38;16.20;98.60
52273;DHT22;38227;50.942;4.016;2023-04-24T09:26:10;16.40;99.10
52273;DHT22;38227;50.942;4.016;2023-04-24T09:28:47;16.80;98.90
52273;DHT22;38227;50.942;4.016;2023-04-24T09:31:20;16.70;97.80
52273;DHT22;38227;50.942;4.016;2023-04-24T09:33:58;16.60;98.20
52273;DHT22;38227;50.942;4.016;2023-04-24T09:36:33;16.50;97.80
52273;DHT22;38227;50.942;4.016;2023-04-24T09:39:06;16.20;97.80
52273;DHT22;38227;50.942;4.016;2023-04-24T09:41:55;15.50;98.20
52273;DHT22;38227;50.942;4.016;2023-04-24T09:44:27;15.30;99.10
52273;DHT22;38227;50.942;4.016;2023-04-24T09:46:59;15.10;99.00
52273;DHT22;38227;50.942;4.016;2023-04-24T09:49:30;15.20;99.20
52273;DHT22;38227;50.942;4.016;2023-04-24T09:52:25;15.20;99.20
52273;DHT22;38227;50.942;4.016;2023-04-24T09:54:58;15.90;98.40
52273;DHT22;38227;50.942;4.016;2023-04-24T09:57:27;16.30;97.10
52273;DHT22;38227;50.942;4.016;2023-04-24T09:59:58;17.10;97.70
52273;DHT22;38227;50.942;4.016;2023-04-24T10:02:31;17.90;96.20
52273;DHT22;38227;50.942;4.016;2023-04-24T10:05:00;18.70;95.20
52273;DHT22;38227;50.942;4.016;2023-04-24T10:07:38;19.20;94.00
52273;DHT22;38227;50.942;4.016;2023-04-24T10:10:14;18.90;93.60
52273;DHT22;38227;50.942;4.016;2023-04-24T10:12:43;18.50;93.50
52273;DHT22;38227;50.942;4.016;2023-04-24T10:15:12;17.90;94.20
52273;DHT22;38227;50.942;4.016;2023-04-24T10:17:41;18.00;93.40
52273;DHT22;38227;50.942;4.016;2023-04-24T10:20:09;17.20;95.00
52273;DHT22;38227;50.942;4.016;2023-04-24T10:22:38;16.60;95.40
52273;DHT22;38227;50.942;4.016;2023-04-24T10:25:07;16.20;95.10
52273;DHT22;38227;50.942;4.016;2023-04-24T10:27:39;16.00;95.20
52273;DHT22;38227;50.942;4.016;2023-04-24T10:30:19;15.70;96.90
52273;DHT22;38227;50.942;4.016;2023-04-24T10:32:48;15.70;97.60
52273;DHT22;38227;50.942;4.016;2023-04-24T10:35:17;15.60;97.20
52273;DHT22;38227;50.942;4.016;2023-04-24T10:38:03;15.70;96.30
52273;DHT22;38227;50.942;4.016;2023-04-24T10:40:34;15.60;97.00
52273;DHT22;38227;50.942;4.016;2023-04-24T10:43:05;15.40;97.80
52273;DHT22;38227;50.942;4.016;2023-04-24T10:45:38;15.50;97.40
52273;DHT22;38227;50.942;4.016;2023-04-24T10:48:09;15.30;97.30
52273;DHT22;38227;50.942;4.016;2023-04-24T10:50:52;14.70;98.50
52273;DHT22;38227;50.942;4.016;2023-04-24T10:53:23;14.90;98.90
52273;DHT22;38227;50.942;4.016;2023-04-24T10:56:18;15.00;98.60
52273;DHT22;38227;50.942;4.016;2023-04-24T10:58:52;14.90;98.10
52273;DHT22;38227;50.942;4.016;2023-04-24T11:01:30;15.20;98.10
52273;DHT22;38227;50.942;4.016;2023-04-24T11:04:03;15.40;98.10
52273;DHT22;38227;50.942;4.016;2023-04-24T11:06:36;15.60;97.50
52273;DHT22;38227;50.942;4.016;2023-04-24T11:09:09;15.40;98.00
52273;DHT22;38227;50.942;4.016;2023-04-24T11:11:45;15.10;98.50
52273;DHT22;38227;50.942;4.016;2023-04-24T11:14:17;15.10;99.30
52273;DHT22;38227;50.942;4.016;2023-04-24T11:16:54;15.10;99.60
52273;DHT22;38227;50.942;4.016;2023-04-24T11:19:26;15.20;98.90
52273;DHT22;38227;50.942;4.016;2023-04-24T11:22:01;15.30;98.40
52273;DHT22;38227;50.942;4.016;2023-04-24T11:24:53;15.60;98.20
52273;DHT22;38227;50.942;4.016;2023-04-24T11:27:22;15.60;96.70
52273;DHT22;38227;50.942;4.016;2023-04-24T11:30:02;15.50;97.10
52273;DHT22;38227;50.942;4.016;2023-04-24T11:32:53;15.40;98.00
52273;DHT22;38227;50.942;4.016;2023-04-24T11:35:23;15.40;98.10
52273;DHT22;38227;50.942;4.016;2023-04-24T11:38:00;15.50;98.20
52273;DHT22;38227;50.942;4.016;2023-04-24T11:40:28;15.40;97.60
52273;DHT22;38227;50.942;4.016;2023-04-24T11:43:00;15.50;97.40
52273;DHT22;38227;50.942;4.016;2023-04-24T11:45:29;15.50;97.80
52273;DHT22;38227;50.942;4.016;2023-04-24T11:47:58;15.40;98.20
52273;DHT22;38227;50.942;4.016;2023-04-24T11:50:28;15.50;97.70
52273;DHT22;38227;50.942;4.016;2023-04-24T11:52:56;15.50;98.20
52273;DHT22;38227;50.942;4.016;2023-04-24T11:55:28;15.70;97.90
52273;DHT22;38227;50.942;4.016;2023-04-24T11:58:00;15.70;97.30
52273;DHT22;38227;50.942;4.016;2023-04-24T12:00:37;15.60;97.50
52273;DHT22;38227;50.942;4.016;2023-04-24T12:03:10;15.30;98.10
52273;DHT22;38227;50.942;4.016;2023-04-24T12:05:40;15.30;98.20
52273;DHT22;38227;50.942;4.016;2023-04-24T12:08:07;15.20;98.30
52273;DHT22;38227;50.942;4.016;2023-04-24T12:10:37;15.30;97.70
52273;DHT22;38227;50.942;4.016;2023-04-24T12:13:05;15.20;97.00
52273;DHT22;38227;50.942;4.016;2023-04-24T12:15:40;15.20;97.80
52273;DHT22;38227;50.942;4.016;2023-04-24T12:18:12;15.10;97.00
52273;DHT22;38227;50.942;4.016;2023-04-24T12:20:42;15.10;98.20
52273;DHT22;38227;50.942;4.016;2023-04-24T12:23:11;15.10;96.60
52273;DHT22;38227;50.942;4.016;2023-04-24T12:25:43;15.00;98.20
52273;DHT22;38227;50.942;4.016;2023-04-24T12:28:12;15.00;97.70
52273;DHT22;38227;50.942;4.016;2023-04-24T12:30:49;15.10;97.40
52273;DHT22;38227;50.942;4.016;2023-04-24T12:33:18;15.20;97.60
52273;DHT22;38227;50.942;4.016;2023-04-24T12:35:47;15.40;97.10
52273;DHT22;38227;50.942;4.016;2023-04-24T12:38:16;15.70;96.90
52273;DHT22;38227;50.942;4.016;2023-04-24T12:40:44;15.80;97.20
52273;DHT22;38227;50.942;4.016;2023-04-24T12:43:14;15.60;96.00
52273;DHT22;38227;50.942;4.016;2023-04-24T12:45:42;15.50;96.70
52273;DHT22;38227;50.942;4.016;2023-04-24T12:48:13;15.30;97.00
52273;DHT22;38227;50.942;4.016;2023-04-24T12:50:43;15.00;97.40
52273;DHT22;38227;50.942;4.016;2023-04-24T12:53:14;15.20;97.70
52273;DHT22;38227;50.942;4.016;2023-04-24T12:55:45;15.10;97.10
52273;DHT22;38227;50.942;4.016;2023-04-24T12:58:24;15.20;96.80
52273;DHT22;38227;50.942;4.016;2023-04-24T13:00:53;15.20;96.60
52273;DHT22;38227;50.942;4.016;2023-04-24T13:03:21;15.30;96.60
52273;DHT22;38227;50.942;4.016;2023-04-24T13:05:57;15.30;96.50
52273;DHT22;38227;50.942;4.016;2023-04-24T13:08:36;15.50;95.80
52273;DHT22;38227;50.942;4.016;2023-04-24T13:11:09;15.60;95.80
52273;DHT22;38227;50.942;4.016;2023-04-24T13:13:37;15.80;95.80
52273;DHT22;38227;50.942;4.016;2023-04-24T13:16:05;15.70;94.80
52273;DHT22;38227;50.942;4.016;2023-04-24T13:18:33;15.40;95.00
52273;DHT22;38227;50.942;4.016;2023-04-24T13:21:02;15.40;94.30
52273;DHT22;38227;50.942;4.016;2023-04-24T13:23:30;15.50;94.10
52273;DHT22;38227;50.942;4.016;2023-04-24T13:25:59;15.30;94.40
52273;DHT22;38227;50.942;4.016;2023-04-24T13:28:28;15.20;94.80
52273;DHT22;38227;50.942;4.016;2023-04-24T13:30:56;15.30;94.90
52273;DHT22;38227;50.942;4.016;2023-04-24T13:33:25;15.20;95.30
52273;DHT22;38227;50.942;4.016;2023-04-24T13:35:53;15.50;94.10
52273;DHT22;38227;50.942;4.016;2023-04-24T13:38:21;15.50;94.20
52273;DHT22;38227;50.942;4.016;2023-04-24T13:40:50;15.50;95.60
52273;DHT22;38227;50.942;4.016;2023-04-24T13:43:19;15.20;95.40
52273;DHT22;38227;50.942;4.016;2023-04-24T13:48:02;15.20;95.40
52273;DHT22;38227;50.942;4.016;2023-04-24T13:50:32;15.10;95.60
52273;DHT22;38227;50.942;4.016;2023-04-24T13:53:02;15.00;95.60
52273;DHT22;38227;50.942;4.016;2023-04-24T13:55:30;15.00;95.60
52273;DHT22;38227;50.942;4.016;2023-04-24T13:57:59;15.00;95.10
52273;DHT22;38227;50.942;4.016;2023-04-24T14:00:30;15.20;95.50
52273;DHT22;38227;50.942;4.016;2023-04-24T14:03:01;15.30;95.10
52273;DHT22;38227;50.942;4.016;2023-04-24T14:05:30;15.50;95.50
52273;DHT22;38227;50.942;4.016;2023-04-24T14:07:58;15.50;93.80
52273;DHT22;38227;50.942;4.016;2023-04-24T14:10:27;15.40;93.50
52273;DHT22;38227;50.942;4.016;2023-04-24T14:12:56;15.30;94.60
52273;DHT22;38227;50.942;4.016;2023-04-24T14:15:28;15.50;94.10
52273;DHT22;38227;50.942;4.016;2023-04-24T14:17:56;15.40;94.90
52273;DHT22;38227;50.942;4.016;2023-04-24T14:20:25;15.30;94.00
52273;DHT22;38227;50.942;4.016;2023-04-24T14:22:53;15.40;94.10
52273;DHT22;38227;50.942;4.016;2023-04-24T14:25:24;15.40;94.60
52273;DHT22;38227;50.942;4.016;2023-04-24T14:27:52;15.40;94.10
52273;DHT22;38227;50.942;4.016;2023-04-24T14:30:20;15.30;95.20
52273;DHT22;38227;50.942;4.016;2023-04-24T14:32:48;15.30;93.80
52273;DHT22;38227;50.942;4.016;2023-04-24T14:35:17;15.30;94.10
52273;DHT22;38227;50.942;4.016;2023-04-24T14:37:46;15.20;94.90
52273;DHT22;38227;50.942;4.016;2023-04-24T14:40:15;15.00;95.20
52273;DHT22;38227;50.942;4.016;2023-04-24T14:42:47;15.10;95.20
52273;DHT22;38227;50.942;4.016;2023-04-24T14:45:16;15.30;93.80
52273;DHT22;38227;50.942;4.016;2023-04-24T14:47:45;15.40;95.10
52273;DHT22;38227;50.942;4.016;2023-04-24T14:50:17;15.40;94.80
52273;DHT22;38227;50.942;4.016;2023-04-24T14:52:45;15.40;94.00
52273;DHT22;38227;50.942;4.016;2023-04-24T14:55:14;15.40;94.20
52273;DHT22;38227;50.942;4.016;2023-04-24T14:57:42;15.10;94.80
52273;DHT22;38227;50.942;4.016;2023-04-24T15:00:11;15.00;94.60
52273;DHT22;38227;50.942;4.016;2023-04-24T15:02:52;15.20;95.00
52273;DHT22;38227;50.942;4.016;2023-04-24T15:05:21;15.20;94.00
52273;DHT22;38227;50.942;4.016;2023-04-24T15:07:54;15.00;94.50
52273;DHT22;38227;50.942;4.016;2023-04-24T15:10:27;14.90;94.20
52273;DHT22;38227;50.942;4.016;2023-04-24T15:12:56;15.00;94.10
52273;DHT22;38227;50.942;4.016;2023-04-24T15:15:25;15.10;94.30
52273;DHT22;38227;50.942;4.016;2023-04-24T15:18:04;14.80;94.10
52273;DHT22;38227;50.942;4.016;2023-04-24T15:20:31;14.80;94.90
52273;DHT22;38227;50.942;4.016;2023-04-24T15:22:59;14.70;94.90
52273;DHT22;38227;50.942;4.016;2023-04-24T15:25:31;14.90;94.80
52273;DHT22;38227;50.942;4.016;2023-04-24T15:28:00;14.70;94.80
52273;DHT22;38227;50.942;4.016;2023-04-24T15:30:38;14.60;95.50
52273;DHT22;38227;50.942;4.016;2023-04-24T15:33:06;14.70;95.60
52273;DHT22;38227;50.942;4.016;2023-04-24T15:35:38;14.70;95.00
52273;DHT22;38227;50.942;4.016;2023-04-24T15:38:06;14.70;94.60
52273;DHT22;38227;50.942;4.016;2023-04-24T15:40:34;14.80;95.30
52273;DHT22;38227;50.942;4.016;2023-04-24T15:43:13;14.70;94.90
52273;DHT22;38227;50.942;4.016;2023-04-24T15:45:44;14.50;95.60
52273;DHT22;38227;50.942;4.016;2023-04-24T15:48:15;14.50;94.90
52273;DHT22;38227;50.942;4.016;2023-04-24T15:50:47;14.30;95.20
52273;DHT22;38227;50.942;4.016;2023-04-24T15:53:16;14.10;96.00
52273;DHT22;38227;50.942;4.016;2023-04-24T15:55:51;14.10;96.40
52273;DHT22;38227;50.942;4.016;2023-04-24T15:58:21;14.20;96.30
52273;DHT22;38227;50.942;4.016;2023-04-24T16:00:52;14.30;96.50
52273;DHT22;38227;50.942;4.016;2023-04-24T16:03:24;14.60;95.70
